sensor_id;sensor_type;location;lat;lon;timestamp;temperature;humidity
45108;DHT22;30869;51.188;6.556;2022-08-05T00:00:52;26.30;92.10
45108;DHT22;30869;51.188;6.556;2022-08-05T00:03:27;26.60;92.00
45108;DHT22;30869;51.188;6.556;2022-08-05T00:05:53;26.50;91.20
45108;DHT22;30869;51.188;6.556;2022-08-05T00:08:22;26.40;92.10
45108;DHT22;30869;51.188;6.556;2022-08-05T00:10:58;26.40;91.40
45108;DHT22;30869;51.188;6.556;2022-08-05T00:13:32;26.40;92.00
45108;DHT22;30869;51.188;6.556;2022-08-05T00:16:00;26.60;91.60
45108;DHT22;30869;51.188;6.556;2022-08-05T00:18:31;26.60;91.70
45108;DHT22;30869;51.188;6.556;2022-08-05T00:21:08;26.70;91.30
45108;DHT22;30869;51.188;6.556;2022-08-05T00:23:36;26.60;91.60
45108;DHT22;30869;51.188;6.556;2022-08-05T00:26:10;26.70;90.20
45108;DHT22;30869;51.188;6.556;2022-08-05T00:28:40;26.50;90.80
45108;DHT22;30869;51.188;6.556;2022-08-05T00:31:13;26.20;91.90
45108;DHT22;30869;51.188;6.556;2022-08-05T00:33:43;26.40;92.10
45108;DHT22;30869;51.188;6.556;2022-08-05T00:36:09;26.50;91.80
45108;DHT22;30869;51.188;6.556;2022-08-05T00:38:41;26.50;91.70
45108;DHT22;30869;51.188;6.556;2022-08-05T00:41:31;26.50;91.90
45108;DHT22;30869;51.188;6.556;2022-08-05T00:43:59;26.50;91.80
45108;DHT22;30869;51.188;6.556;2022-08-05T00:46:24;26.60;91.50
45108;DHT22;30869;51.188;6.556;2022-08-05T00:48:51;26.60;91.50
45108;DHT22;30869;51.188;6.556;2022-08-05T00:51:18;26.50;91.70
45108;DHT22;30869;51.188;6.556;2022-08-05T00:53:44;26.60;91.60
45108;DHT22;30869;51.188;6.556;2022-08-05T00:56:14;26.40;91.50
45108;DHT22;30869;51.188;6.556;2022-08-05T00:58:40;26.00;92.20
45108;DHT22;30869;51.188;6.556;2022-08-05T01:01:08;26.30;91.60
45108;DHT22;30869;51.188;6.556;2022-08-05T01:03:38;26.00;91.80
45108;DHT22;30869;51.188;6.556;2022-08-05T01:06:06;25.90;91.30
45108;DHT22;30869;51.188;6.556;2022-08-05T01:08:33;26.00;92.30
45108;DHT22;30869;51.188;6.556;2022-08-05T01:11:03;26.40;92.10
45108;DHT22;30869;51.188;6.556;2022-08-05T01:14:01;26.40;91.70
45108;DHT22;30869;51.188;6.556;2022-08-05T01:16:34;26.40;91.70
45108;DHT22;30869;51.188;6.556;2022-08-05T01:19:42;26.20;91.70
45108;DHT22;30869;51.188;6.556;2022-08-05T01:22:39;26.20;91.50
45108;DHT22;30869;51.188;6.556;2022-08-05T01:25:34;26.20;91.40
45108;DHT22;30869;51.188;6.556;2022-08-05T01:31:11;26.10;92.00
45108;DHT22;30869;51.188;6.556;2022-08-05T01:34:12;25.60;92.20
45108;DHT22;30869;51.188;6.556;2022-08-05T01:36:45;25.80;92.30
45108;DHT22;30869;51.188;6.556;2022-08-05T01:39:14;26.00;92.10
45108;DHT22;30869;51.188;6.556;2022-08-05T01:41:41;26.20;92.00
45108;DHT22;30869;51.188;6.556;2022-08-05T01:44:09;26.20;92.00
45108;DHT22;30869;51.188;6.556;2022-08-05T01:46:35;26.00;92.20
45108;DHT22;30869;51.188;6.556;2022-08-05T02:33:17;24.50;95.10
45108;DHT22;30869;51.188;6.556;2022-08-05T03:19:52;24.90;94.70
45108;DHT22;30869;51.188;6.556;2022-08-05T03:30:53;24.90;94.40
45108;DHT22;30869;51.188;6.556;2022-08-05T04:04:52;24.10;96.10
45108;DHT22;30869;51.188;6.556;2022-08-05T04:07:36;24.50;95.40
45108;DHT22;30869;51.188;6.556;2022-08-05T04:10:29;24.70;95.20
45108;DHT22;30869;51.188;6.556;2022-08-05T04:13:33;24.90;95.00
45108;DHT22;30869;51.188;6.556;2022-08-05T04:20:24;24.50;95.10
45108;DHT22;30869;51.188;6.556;2022-08-05T04:23:35;24.80;94.90
45108;DHT22;30869;51.188;6.556;2022-08-05T04:26:08;25.00;94.40
45108;DHT22;30869;51.188;6.556;2022-08-05T04:28:43;24.70;94.90
45108;DHT22;30869;51.188;6.556;2022-08-05T04:39:40;24.40;94.80
45108;DHT22;30869;51.188;6.556;2022-08-05T04:43:10;24.60;94.80
45108;DHT22;30869;51.188;6.556;2022-08-05T04:46:27;24.50;95.00
45108;DHT22;30869;51.188;6.556;2022-08-05T04:49:10;24.70;95.00
45108;DHT22;30869;51.188;6.556;2022-08-05T04:51:59;24.50;95.00
45108;DHT22;30869;51.188;6.556;2022-08-05T04:54:59;24.40;95.20
45108;DHT22;30869;51.188;6.556;2022-08-05T04:57:51;24.50;95.00
45108;DHT22;30869;51.188;6.556;2022-08-05T05:00:57;24.50;94.80
45108;DHT22;30869;51.188;6.556;2022-08-05T05:03:25;24.60;94.70
45108;DHT22;30869;51.188;6.556;2022-08-05T05:06:09;24.20;95.50
45108;DHT22;30869;51.188;6.556;2022-08-05T05:08:46;23.80;95.80
45108;DHT22;30869;51.188;6.556;2022-08-05T05:11:15;24.00;95.80
45108;DHT22;30869;51.188;6.556;2022-08-05T05:14:09;24.10;95.60
45108;DHT22;30869;51.188;6.556;2022-08-05T05:16:46;24.40;95.20
45108;DHT22;30869;51.188;6.556;2022-08-05T05:19:28;24.30;95.60
45108;DHT22;30869;51.188;6.556;2022-08-05T05:22:13;24.20;96.10
45108;DHT22;30869;51.188;6.556;2022-08-05T05:24:55;24.30;95.20
45108;DHT22;30869;51.188;6.556;2022-08-05T05:27:24;24.30;95.20
45108;DHT22;30869;51.188;6.556;2022-08-05T05:30:14;24.50;95.20
45108;DHT22;30869;51.188;6.556;2022-08-05T05:32:40;24.60;94.70
45108;DHT22;30869;51.188;6.556;2022-08-05T05:35:08;24.60;94.90
45108;DHT22;30869;51.188;6.556;2022-08-05T05:37:48;24.70;94.50
45108;DHT22;30869;51.188;6.556;2022-08-05T05:40:15;24.60;94.40
45108;DHT22;30869;51.188;6.556;2022-08-05T05:42:41;24.60;94.50
45108;DHT22;30869;51.188;6.556;2022-08-05T05:45:07;24.60;94.60
45108;DHT22;30869;51.188;6.556;2022-08-05T05:47:37;24.60;94.80
45108;DHT22;30869;51.188;6.556;2022-08-05T05:50:04;24.50;94.70
45108;DHT22;30869;51.188;6.556;2022-08-05T05:52:35;24.30;95.00
45108;DHT22;30869;51.188;6.556;2022-08-05T05:55:03;24.10;95.40
45108;DHT22;30869;51.188;6.556;2022-08-05T05:57:30;24.00;95.30
45108;DHT22;30869;51.188;6.556;2022-08-05T05:59:55;24.00;95.70
45108;DHT22;30869;51.188;6.556;2022-08-05T06:02:46;23.90;95.60
45108;DHT22;30869;51.188;6.556;2022-08-05T06:08:28;24.50;94.60
45108;DHT22;30869;51.188;6.556;2022-08-05T06:11:07;24.50;94.40
45108;DHT22;30869;51.188;6.556;2022-08-05T06:13:36;24.60;94.30
45108;DHT22;30869;51.188;6.556;2022-08-05T06:16:10;24.70;94.20
45108;DHT22;30869;51.188;6.556;2022-08-05T06:18:42;24.30;94.60
45108;DHT22;30869;51.188;6.556;2022-08-05T06:21:10;24.10;94.90
45108;DHT22;30869;51.188;6.556;2022-08-05T06:23:39;24.10;94.30
45108;DHT22;30869;51.188;6.556;2022-08-05T06:26:04;24.00;94.70
45108;DHT22;30869;51.188;6.556;2022-08-05T06:28:33;24.20;94.80
45108;DHT22;30869;51.188;6.556;2022-08-05T06:31:08;24.10;94.70
45108;DHT22;30869;51.188;6.556;2022-08-05T06:33:36;24.10;94.50
45108;DHT22;30869;51.188;6.556;2022-08-05T06:36:11;24.40;94.30
45108;DHT22;30869;51.188;6.556;2022-08-05T06:39:16;24.40;94.20
45108;DHT22;30869;51.188;6.556;2022-08-05T06:41:53;24.30;93.70
45108;DHT22;30869;51.188;6.556;2022-08-05T06:44:19;24.10;94.10
45108;DHT22;30869;51.188;6.556;2022-08-05T06:46:45;23.90;94.90
45108;DHT22;30869;51.188;6.556;2022-08-05T06:49:14;24.00;94.50
45108;DHT22;30869;51.188;6.556;2022-08-05T06:51:39;23.90;94.60
45108;DHT22;30869;51.188;6.556;2022-08-05T06:54:05;24.10;94.50
45108;DHT22;30869;51.188;6.556;2022-08-05T06:56:38;24.00;94.30
45108;DHT22;30869;51.188;6.556;2022-08-05T06:59:07;23.80;94.80
45108;DHT22;30869;51.188;6.556;2022-08-05T07:01:32;24.00;94.50
45108;DHT22;30869;51.188;6.556;2022-08-05T07:03:59;23.60;95.10
45108;DHT22;30869;51.188;6.556;2022-08-05T07:06:35;23.70;95.10
45108;DHT22;30869;51.188;6.556;2022-08-05T07:09:01;23.70;94.80
45108;DHT22;30869;51.188;6.556;2022-08-05T07:11:27;23.70;95.00
45108;DHT22;30869;51.188;6.556;2022-08-05T07:13:56;23.80;94.40
45108;DHT22;30869;51.188;6.556;2022-08-05T07:16:40;23.90;94.60
45108;DHT22;30869;51.188;6.556;2022-08-05T07:19:20;24.10;94.40
45108;DHT22;30869;51.188;6.556;2022-08-05T07:21:46;24.30;93.90
45108;DHT22;30869;51.188;6.556;2022-08-05T07:24:13;24.30;94.10
45108;DHT22;30869;51.188;6.556;2022-08-05T07:26:40;24.30;94.00
45108;DHT22;30869;51.188;6.556;2022-08-05T07:29:07;24.20;93.50
45108;DHT22;30869;51.188;6.556;2022-08-05T07:31:33;23.90;94.00
45108;DHT22;30869;51.188;6.556;2022-08-05T07:33:59;23.70;93.30
45108;DHT22;30869;51.188;6.556;2022-08-05T07:36:24;23.80;93.90
45108;DHT22;30869;51.188;6.556;2022-08-05T07:38:50;23.70;93.90
45108;DHT22;30869;51.188;6.556;2022-08-05T07:41:18;23.50;94.30
45108;DHT22;30869;51.188;6.556;2022-08-05T07:43:45;23.40;94.50
45108;DHT22;30869;51.188;6.556;2022-08-05T07:46:11;23.60;95.10
45108;DHT22;30869;51.188;6.556;2022-08-05T07:48:37;23.30;94.80
45108;DHT22;30869;51.188;6.556;2022-08-05T07:51:03;23.60;93.60
45108;DHT22;30869;51.188;6.556;2022-08-05T07:53:31;23.60;94.80
45108;DHT22;30869;51.188;6.556;2022-08-05T07:55:57;23.70;94.50
45108;DHT22;30869;51.188;6.556;2022-08-05T07:58:23;23.70;94.60
45108;DHT22;30869;51.188;6.556;2022-08-05T08:00:49;23.30;93.70
45108;DHT22;30869;51.188;6.556;2022-08-05T08:03:17;23.30;93.90
45108;DHT22;30869;51.188;6.556;2022-08-05T08:05:43;23.40;94.80
45108;DHT22;30869;51.188;6.556;2022-08-05T08:08:12;23.40;94.10
45108;DHT22;30869;51.188;6.556;2022-08-05T08:10:38;23.50;94.80
45108;DHT22;30869;51.188;6.556;2022-08-05T08:13:08;23.80;94.40
45108;DHT22;30869;51.188;6.556;2022-08-05T08:15:33;23.80;94.20
45108;DHT22;30869;51.188;6.556;2022-08-05T08:17:59;23.90;94.10
45108;DHT22;30869;51.188;6.556;2022-08-05T08:23:18;23.70;93.70
45108;DHT22;30869;51.188;6.556;2022-08-05T08:25:49;23.40;93.00
45108;DHT22;30869;51.188;6.556;2022-08-05T08:28:15;23.00;94.10
45108;DHT22;30869;51.188;6.556;2022-08-05T08:30:40;23.10;94.40
45108;DHT22;30869;51.188;6.556;2022-08-05T08:33:24;23.00;94.00
45108;DHT22;30869;51.188;6.556;2022-08-05T08:35:50;23.30;94.70
45108;DHT22;30869;51.188;6.556;2022-08-05T08:38:16;23.40;93.90
45108;DHT22;30869;51.188;6.556;2022-08-05T08:40:44;23.20;93.70
45108;DHT22;30869;51.188;6.556;2022-08-05T08:43:12;23.30;94.60
45108;DHT22;30869;51.188;6.556;2022-08-05T08:45:42;23.50;94.60
45108;DHT22;30869;51.188;6.556;2022-08-05T08:48:14;23.20;94.30
45108;DHT22;30869;51.188;6.556;2022-08-05T08:50:43;23.50;94.50
45108;DHT22;30869;51.188;6.556;2022-08-05T08:53:10;23.30;94.40
45108;DHT22;30869;51.188;6.556;2022-08-05T08:55:43;23.30;94.60
45108;DHT22;30869;51.188;6.556;2022-08-05T08:58:14;23.50;93.90
45108;DHT22;30869;51.188;6.556;2022-08-05T09:00:44;23.50;94.60
45108;DHT22;30869;51.188;6.556;2022-08-05T09:03:14;23.50;94.20
45108;DHT22;30869;51.188;6.556;2022-08-05T09:05:43;23.50;94.30
45108;DHT22;30869;51.188;6.556;2022-08-05T09:08:14;23.50;94.10
45108;DHT22;30869;51.188;6.556;2022-08-05T09:10:42;23.70;93.50
45108;DHT22;30869;51.188;6.556;2022-08-05T09:13:18;23.60;93.00
45108;DHT22;30869;51.188;6.556;2022-08-05T09:15:50;23.10;93.80
45108;DHT22;30869;51.188;6.556;2022-08-05T09:18:15;22.80;94.70
45108;DHT22;30869;51.188;6.556;2022-08-05T09:20:43;22.50;94.00
45108;DHT22;30869;51.188;6.556;2022-08-05T09:23:15;22.70;95.50
45108;DHT22;30869;51.188;6.556;2022-08-05T09:25:43;22.70;94.30
45108;DHT22;30869;51.188;6.556;2022-08-05T09:28:16;22.70;95.00
45108;DHT22;30869;51.188;6.556;2022-08-05T09:30:50;22.80;94.20
45108;DHT22;30869;51.188;6.556;2022-08-05T09:33:23;23.10;94.80
45108;DHT22;30869;51.188;6.556;2022-08-05T09:35:56;23.20;94.40
45108;DHT22;30869;51.188;6.556;2022-08-05T09:38:30;23.50;94.20
45108;DHT22;30869;51.188;6.556;2022-08-05T09:41:09;23.60;94.00
45108;DHT22;30869;51.188;6.556;2022-08-05T09:43:39;23.40;93.60
45108;DHT22;30869;51.188;6.556;2022-08-05T09:46:29;23.10;94.00
45108;DHT22;30869;51.188;6.556;2022-08-05T09:49:03;22.90;94.20
45108;DHT22;30869;51.188;6.556;2022-08-05T09:51:37;22.80;95.10
45108;DHT22;30869;51.188;6.556;2022-08-05T09:54:07;23.00;94.70
45108;DHT22;30869;51.188;6.556;2022-08-05T09:56:37;23.30;94.30
45108;DHT22;30869;51.188;6.556;2022-08-05T09:59:08;23.40;93.40
45108;DHT22;30869;51.188;6.556;2022-08-05T10:01:43;23.60;93.80
45108;DHT22;30869;51.188;6.556;2022-08-05T10:04:13;23.60;93.50
45108;DHT22;30869;51.188;6.556;2022-08-05T10:06:41;23.60;93.00
45108;DHT22;30869;51.188;6.556;2022-08-05T10:09:13;23.60;93.80
45108;DHT22;30869;51.188;6.556;2022-08-05T10:11:44;23.60;93.70
45108;DHT22;30869;51.188;6.556;2022-08-05T10:14:32;23.70;93.20
45108;DHT22;30869;51.188;6.556;2022-08-05T10:17:13;23.50;93.70
45108;DHT22;30869;51.188;6.556;2022-08-05T10:28:35;23.30;94.00
45108;DHT22;30869;51.188;6.556;2022-08-05T10:31:02;23.60;92.70
45108;DHT22;30869;51.188;6.556;2022-08-05T10:33:32;23.50;93.30
45108;DHT22;30869;51.188;6.556;2022-08-05T10:36:01;23.00;93.40
45108;DHT22;30869;51.188;6.556;2022-08-05T10:38:36;23.20;93.70
45108;DHT22;30869;51.188;6.556;2022-08-05T10:41:33;23.40;93.60
45108;DHT22;30869;51.188;6.556;2022-08-05T10:44:10;23.70;93.40
45108;DHT22;30869;51.188;6.556;2022-08-05T10:46:52;23.80;93.00
45108;DHT22;30869;51.188;6.556;2022-08-05T10:52:57;23.50;92.40
45108;DHT22;30869;51.188;6.556;2022-08-05T10:55:25;23.50;93.30
45108;DHT22;30869;51.188;6.556;2022-08-05T10:58:08;23.60;92.90
45108;DHT22;30869;51.188;6.556;2022-08-05T11:00:37;23.50;93.30
45108;DHT22;30869;51.188;6.556;2022-08-05T11:03:11;23.70;93.10
45108;DHT22;30869;51.188;6.556;2022-08-05T11:06:07;23.70;92.80
45108;DHT22;30869;51.188;6.556;2022-08-05T11:11:38;23.90;92.50
45108;DHT22;30869;51.188;6.556;2022-08-05T11:14:47;23.90;92.20
45108;DHT22;30869;51.188;6.556;2022-08-05T11:17:38;23.40;92.50
45108;DHT22;30869;51.188;6.556;2022-08-05T11:20:31;23.80;92.70
45108;DHT22;30869;51.188;6.556;2022-08-05T11:22:57;23.70;92.70
45108;DHT22;30869;51.188;6.556;2022-08-05T11:25:49;23.80;92.50
45108;DHT22;30869;51.188;6.556;2022-08-05T11:29:04;23.50;92.60
45108;DHT22;30869;51.188;6.556;2022-08-05T11:31:36;23.90;92.90
45108;DHT22;30869;51.188;6.556;2022-08-05T11:34:06;23.70;92.10
45108;DHT22;30869;51.188;6.556;2022-08-05T11:39:07;23.70;92.20
45108;DHT22;30869;51.188;6.556;2022-08-05T11:41:33;23.80;92.70
45108;DHT22;30869;51.188;6.556;2022-08-05T11:44:08;23.70;92.80
45108;DHT22;30869;51.188;6.556;2022-08-05T11:46:42;23.80;92.60
45108;DHT22;30869;51.188;6.556;2022-08-05T11:49:12;23.90;92.00
45108;DHT22;30869;51.188;6.556;2022-08-05T11:51:43;23.70;92.30
45108;DHT22;30869;51.188;6.556;2022-08-05T11:54:18;23.80;92.50
45108;DHT22;30869;51.188;6.556;2022-08-05T11:56:47;23.90;92.10
45108;DHT22;30869;51.188;6.556;2022-08-05T11:59:19;24.00;92.30
45108;DHT22;30869;51.188;6.556;2022-08-05T12:04:26;24.10;92.10
45108;DHT22;30869;51.188;6.556;2022-08-05T12:06:52;23.90;91.30
45108;DHT22;30869;51.188;6.556;2022-08-05T12:09:22;23.80;91.40
45108;DHT22;30869;51.188;6.556;2022-08-05T12:11:48;23.90;92.00
45108;DHT22;30869;51.188;6.556;2022-08-05T12:14:14;24.00;92.20
45108;DHT22;30869;51.188;6.556;2022-08-05T12:16:42;24.00;91.90
45108;DHT22;30869;51.188;6.556;2022-08-05T12:19:09;23.80;91.50
45108;DHT22;30869;51.188;6.556;2022-08-05T12:21:46;23.70;91.30
45108;DHT22;30869;51.188;6.556;2022-08-05T12:24:14;23.70;91.50
45108;DHT22;30869;51.188;6.556;2022-08-05T12:26:50;23.70;91.40
45108;DHT22;30869;51.188;6.556;2022-08-05T12:29:22;23.70;90.90
45108;DHT22;30869;51.188;6.556;2022-08-05T12:31:56;23.80;91.20
45108;DHT22;30869;51.188;6.556;2022-08-05T12:34:26;23.90;91.60
45108;DHT22;30869;51.188;6.556;2022-08-05T12:36:55;24.00;91.10
45108;DHT22;30869;51.188;6.556;2022-08-05T12:39:22;24.00;91.40
45108;DHT22;30869;51.188;6.556;2022-08-05T12:41:48;24.00;90.70
45108;DHT22;30869;51.188;6.556;2022-08-05T12:44:16;23.90;90.70
45108;DHT22;30869;51.188;6.556;2022-08-05T12:46:43;23.70;91.00
45108;DHT22;30869;51.188;6.556;2022-08-05T12:49:15;23.80;90.90
45108;DHT22;30869;51.188;6.556;2022-08-05T12:51:46;23.70;90.40
45108;DHT22;30869;51.188;6.556;2022-08-05T12:54:21;23.60;90.60
45108;DHT22;30869;51.188;6.556;2022-08-05T12:56:50;23.70;90.50
45108;DHT22;30869;51.188;6.556;2022-08-05T13:04:20;23.40;90.90
45108;DHT22;30869;51.188;6.556;2022-08-05T13:06:45;23.30;91.50
45108;DHT22;30869;51.188;6.556;2022-08-05T13:09:12;23.20;93.20
45108;DHT22;30869;51.188;6.556;2022-08-05T13:11:42;23.20;93.50
45108;DHT22;30869;51.188;6.556;2022-08-05T13:16:50;23.10;94.30
45108;DHT22;30869;51.188;6.556;2022-08-05T13:19:20;23.10;94.70
45108;DHT22;30869;51.188;6.556;2022-08-05T13:21:46;23.10;94.50
45108;DHT22;30869;51.188;6.556;2022-08-05T13:24:12;23.00;94.10
45108;DHT22;30869;51.188;6.556;2022-08-05T13:26:37;23.10;94.30
45108;DHT22;30869;51.188;6.556;2022-08-05T13:29:03;23.10;95.00
45108;DHT22;30869;51.188;6.556;2022-08-05T13:31:29;23.10;94.70
45108;DHT22;30869;51.188;6.556;2022-08-05T13:33:55;23.10;94.30
45108;DHT22;30869;51.188;6.556;2022-08-05T13:36:21;23.10;94.80
45108;DHT22;30869;51.188;6.556;2022-08-05T13:38:46;23.20;94.60
45108;DHT22;30869;51.188;6.556;2022-08-05T13:41:12;23.10;94.30
45108;DHT22;30869;51.188;6.556;2022-08-05T13:43:39;23.20;94.50
45108;DHT22;30869;51.188;6.556;2022-08-05T13:46:05;23.00;94.00
45108;DHT22;30869;51.188;6.556;2022-08-05T13:48:30;23.10;93.80
45108;DHT22;30869;51.188;6.556;2022-08-05T13:51:07;23.10;93.30
45108;DHT22;30869;51.188;6.556;2022-08-05T13:53:33;23.10;93.20
45108;DHT22;30869;51.188;6.556;2022-08-05T13:56:00;23.00;93.30
45108;DHT22;30869;51.188;6.556;2022-08-05T13:58:26;23.10;92.40
45108;DHT22;30869;51.188;6.556;2022-08-05T14:00:52;23.10;92.30
45108;DHT22;30869;51.188;6.556;2022-08-05T14:03:17;23.30;91.80
45108;DHT22;30869;51.188;6.556;2022-08-05T14:05:43;23.20;90.90
45108;DHT22;30869;51.188;6.556;2022-08-05T14:08:09;23.20;90.20
45108;DHT22;30869;51.188;6.556;2022-08-05T14:10:34;23.30;91.00
45108;DHT22;30869;51.188;6.556;2022-08-05T14:13:00;23.40;90.90
45108;DHT22;30869;51.188;6.556;2022-08-05T14:15:26;23.40;90.90
45108;DHT22;30869;51.188;6.556;2022-08-05T14:17:52;23.40;90.50
45108;DHT22;30869;51.188;6.556;2022-08-05T14:20:18;23.40;90.90
45108;DHT22;30869;51.188;6.556;2022-08-05T14:22:44;23.30;90.90
45108;DHT22;30869;51.188;6.556;2022-08-05T14:25:10;23.30;90.70
45108;DHT22;30869;51.188;6.556;2022-08-05T14:27:35;23.30;91.10
45108;DHT22;30869;51.188;6.556;2022-08-05T14:30:02;23.20;90.80
45108;DHT22;30869;51.188;6.556;2022-08-05T14:32:28;23.40;91.00
45108;DHT22;30869;51.188;6.556;2022-08-05T14:34:55;23.40;90.40
45108;DHT22;30869;51.188;6.556;2022-08-05T14:37:21;23.60;90.30
45108;DHT22;30869;51.188;6.556;2022-08-05T14:39:47;23.50;88.80
45108;DHT22;30869;51.188;6.556;2022-08-05T14:42:12;23.50;89.70
45108;DHT22;30869;51.188;6.556;2022-08-05T14:44:38;23.60;86.90
45108;DHT22;30869;51.188;6.556;2022-08-05T14:47:04;23.50;86.70
45108;DHT22;30869;51.188;6.556;2022-08-05T14:49:30;23.40;86.20
45108;DHT22;30869;51.188;6.556;2022-08-05T14:51:55;23.40;87.70
45108;DHT22;30869;51.188;6.556;2022-08-05T14:54:21;23.50;85.90
45108;DHT22;30869;51.188;6.556;2022-08-05T14:56:47;23.50;86.10
45108;DHT22;30869;51.188;6.556;2022-08-05T14:59:13;23.60;83.70
45108;DHT22;30869;51.188;6.556;2022-08-05T15:01:39;23.50;83.60
45108;DHT22;30869;51.188;6.556;2022-08-05T15:04:05;23.40;82.70
45108;DHT22;30869;51.188;6.556;2022-08-05T15:06:34;23.40;83.40
45108;DHT22;30869;51.188;6.556;2022-08-05T15:09:00;23.40;83.40
45108;DHT22;30869;51.188;6.556;2022-08-05T15:11:26;23.30;83.00
45108;DHT22;30869;51.188;6.556;2022-08-05T15:13:52;23.50;82.30
45108;DHT22;30869;51.188;6.556;2022-08-05T15:16:17;23.50;82.40
45108;DHT22;30869;51.188;6.556;2022-08-05T15:18:43;23.40;79.90
45108;DHT22;30869;51.188;6.556;2022-08-05T15:21:09;23.40;79.60
45108;DHT22;30869;51.188;6.556;2022-08-05T15:23:34;23.30;79.70
45108;DHT22;30869;51.188;6.556;2022-08-05T15:26:00;23.30;75.60
45108;DHT22;30869;51.188;6.556;2022-08-05T15:28:25;23.50;80.40
45108;DHT22;30869;51.188;6.556;2022-08-05T15:30:51;23.40;76.70
45108;DHT22;30869;51.188;6.556;2022-08-05T15:33:17;23.60;76.90
45108;DHT22;30869;51.188;6.556;2022-08-05T15:35:42;23.60;75.60
45108;DHT22;30869;51.188;6.556;2022-08-05T15:38:08;23.60;77.10
45108;DHT22;30869;51.188;6.556;2022-08-05T15:40:34;23.50;74.60
45108;DHT22;30869;51.188;6.556;2022-08-05T15:42:59;23.50;77.90
45108;DHT22;30869;51.188;6.556;2022-08-05T15:45:25;23.30;74.90
45108;DHT22;30869;51.188;6.556;2022-08-05T15:47:51;23.30;75.80
45108;DHT22;30869;51.188;6.556;2022-08-05T15:50:16;23.50;76.10
45108;DHT22;30869;51.188;6.556;2022-08-05T15:52:42;23.60;75.10
45108;DHT22;30869;51.188;6.556;2022-08-05T15:55:10;23.50;72.00
45108;DHT22;30869;51.188;6.556;2022-08-05T15:57:39;23.20;74.50
45108;DHT22;30869;51.188;6.556;2022-08-05T16:00:06;23.30;73.50
45108;DHT22;30869;51.188;6.556;2022-08-05T16:02:32;23.30;75.90
45108;DHT22;30869;51.188;6.556;2022-08-05T16:04:58;23.40;73.20
45108;DHT22;30869;51.188;6.556;2022-08-05T16:07:24;23.40;73.40
45108;DHT22;30869;51.188;6.556;2022-08-05T16:09:49;23.40;73.40
45108;DHT22;30869;51.188;6.556;2022-08-05T16:12:16;23.20;71.90
45108;DHT22;30869;51.188;6.556;2022-08-05T16:14:42;23.20;74.10
45108;DHT22;30869;51.188;6.556;2022-08-05T16:17:08;23.20;73.00
45108;DHT22;30869;51.188;6.556;2022-08-05T16:19:34;23.30;73.00
45108;DHT22;30869;51.188;6.556;2022-08-05T16:22:00;23.20;73.60
45108;DHT22;30869;51.188;6.556;2022-08-05T16:24:25;23.20;72.20
45108;DHT22;30869;51.188;6.556;2022-08-05T16:26:57;23.20;74.50
45108;DHT22;30869;51.188;6.556;2022-08-05T16:29:24;23.20;72.30
45108;DHT22;30869;51.188;6.556;2022-08-05T16:31:50;23.40;72.10
45108;DHT22;30869;51.188;6.556;2022-08-05T16:34:16;23.50;70.70
45108;DHT22;30869;51.188;6.556;2022-08-05T16:36:42;23.50;69.70
45108;DHT22;30869;51.188;6.556;2022-08-05T16:39:08;23.60;68.80
45108;DHT22;30869;51.188;6.556;2022-08-05T16:41:35;23.70;68.80
45108;DHT22;30869;51.188;6.556;2022-08-05T16:44:14;23.60;68.70
45108;DHT22;30869;51.188;6.556;2022-08-05T16:46:40;23.60;68.70
45108;DHT22;30869;51.188;6.556;2022-08-05T16:49:07;23.50;67.10
45108;DHT22;30869;51.188;6.556;2022-08-05T16:51:33;23.50;67.30
45108;DHT22;30869;51.188;6.556;2022-08-05T16:53:59;23.50;67.00
45108;DHT22;30869;51.188;6.556;2022-08-05T16:56:25;23.40;68.10
45108;DHT22;30869;51.188;6.556;2022-08-05T16:58:51;23.20;67.20
45108;DHT22;30869;51.188;6.556;2022-08-05T17:01:17;23.30;67.30
45108;DHT22;30869;51.188;6.556;2022-08-05T17:03:42;23.40;68.60
45108;DHT22;30869;51.188;6.556;2022-08-05T17:06:08;23.30;67.80
45108;DHT22;30869;51.188;6.556;2022-08-05T17:08:34;23.40;68.80
45108;DHT22;30869;51.188;6.556;2022-08-05T17:11:02;23.20;68.20
45108;DHT22;30869;51.188;6.556;2022-08-05T17:13:28;23.20;69.40
45108;DHT22;30869;51.188;6.556;2022-08-05T17:15:53;23.20;70.60
45108;DHT22;30869;51.188;6.556;2022-08-05T17:18:19;23.40;69.50
45108;DHT22;30869;51.188;6.556;2022-08-05T17:20:44;23.40;68.40
45108;DHT22;30869;51.188;6.556;2022-08-05T17:23:10;23.30;68.70
45108;DHT22;30869;51.188;6.556;2022-08-05T17:25:36;23.30;69.90
45108;DHT22;30869;51.188;6.556;2022-08-05T17:28:01;23.40;69.10
45108;DHT22;30869;51.188;6.556;2022-08-05T17:30:27;23.40;69.50
45108;DHT22;30869;51.188;6.556;2022-08-05T17:32:53;23.60;69.60
45108;DHT22;30869;51.188;6.556;2022-08-05T17:35:19;23.70;69.70
45108;DHT22;30869;51.188;6.556;2022-08-05T17:37:45;24.10;70.50
45108;DHT22;30869;51.188;6.556;2022-08-05T17:40:15;23.60;68.40
45108;DHT22;30869;51.188;6.556;2022-08-05T17:42:42;23.60;70.70
45108;DHT22;30869;51.188;6.556;2022-08-05T17:45:11;23.60;68.30
45108;DHT22;30869;51.188;6.556;2022-08-05T17:47:37;23.70;70.80
45108;DHT22;30869;51.188;6.556;2022-08-05T17:50:04;23.50;70.30
45108;DHT22;30869;51.188;6.556;2022-08-05T17:52:31;23.50;69.70
45108;DHT22;30869;51.188;6.556;2022-08-05T17:54:57;23.50;72.80
45108;DHT22;30869;51.188;6.556;2022-08-05T17:57:22;23.50;72.30
45108;DHT22;30869;51.188;6.556;2022-08-05T17:59:48;23.60;73.10
45108;DHT22;30869;51.188;6.556;2022-08-05T18:02:13;23.70;73.40
45108;DHT22;30869;51.188;6.556;2022-08-05T18:04:39;23.80;73.10
45108;DHT22;30869;51.188;6.556;2022-08-05T18:07:05;23.80;73.60
45108;DHT22;30869;51.188;6.556;2022-08-05T18:09:30;23.70;73.90
45108;DHT22;30869;51.188;6.556;2022-08-05T18:11:57;23.70;73.30
45108;DHT22;30869;51.188;6.556;2022-08-05T18:14:22;23.50;72.30
45108;DHT22;30869;51.188;6.556;2022-08-05T18:16:48;23.30;71.60
45108;DHT22;30869;51.188;6.556;2022-08-05T18:19:13;23.10;72.00
45108;DHT22;30869;51.188;6.556;2022-08-05T18:21:39;22.90;72.60
45108;DHT22;30869;51.188;6.556;2022-08-05T18:24:05;22.90;72.90
45108;DHT22;30869;51.188;6.556;2022-08-05T18:26:31;22.80;72.40
45108;DHT22;30869;51.188;6.556;2022-08-05T18:28:56;22.80;73.10
45108;DHT22;30869;51.188;6.556;2022-08-05T18:31:22;22.70;73.40
45108;DHT22;30869;51.188;6.556;2022-08-05T18:33:51;22.70;73.40
45108;DHT22;30869;51.188;6.556;2022-08-05T18:36:17;22.70;73.30
45108;DHT22;30869;51.188;6.556;2022-08-05T18:38:43;22.60;73.70
45108;DHT22;30869;51.188;6.556;2022-08-05T18:41:08;22.60;73.00
45108;DHT22;30869;51.188;6.556;2022-08-05T18:43:35;22.50;73.70
45108;DHT22;30869;51.188;6.556;2022-08-05T18:46:00;22.50;72.80
45108;DHT22;30869;51.188;6.556;2022-08-05T18:48:27;22.70;73.20
45108;DHT22;30869;51.188;6.556;2022-08-05T18:50:54;22.50;71.80